createdAt,value
2018-04-24T00:00:10.755Z,8.90
2018-04-24T00:02:38.237Z,11.67
2018-04-24T00:05:05.747Z,11.67
2018-04-24T00:07:33.976Z,11.50
2018-04-24T00:10:01.475Z,10.40
2018-04-24T00:12:29.702Z,10.17
2018-04-24T00:14:57.205Z,9.87
2018-04-24T00:17:25.494Z,10.13
2018-04-24T00:19:53.768Z,10.97
2018-04-24T00:22:21.246Z,11.63
2018-04-24T00:24:48.767Z,12.07
2018-04-24T00:27:17.019Z,10.33
2018-04-24T00:29:44.492Z,11.20
2018-04-24T00:32:12.016Z,10.50
2018-04-24T00:34:39.494Z,8.73
2018-04-24T00:37:07.014Z,14.27
2018-04-24T00:39:34.487Z,11.27
2018-04-24T00:42:01.987Z,13.87
2018-04-24T00:44:29.486Z,14.20
2018-04-24T00:46:56.994Z,12.13
2018-04-24T00:49:24.462Z,11.80
2018-04-24T00:51:52.735Z,11.70
2018-04-24T00:54:20.212Z,13.10
2018-04-24T00:56:47.727Z,11.63
2018-04-24T00:59:15.251Z,11.80
2018-04-24T01:01:42.746Z,12.30
2018-04-24T01:04:10.249Z,12.33
2018-04-24T01:06:37.797Z,9.63
2018-04-24T01:09:05.953Z,10.23
2018-04-24T01:11:33.424Z,9.57
2018-04-24T01:14:01.689Z,10.77
2018-04-24T01:16:29.161Z,12.53
2018-04-24T01:18:57.445Z,11.60
2018-04-24T01:21:25.681Z,13.10
2018-04-24T01:23:53.202Z,13.10
2018-04-24T01:26:20.669Z,15.70
2018-04-24T01:28:48.192Z,12.33
2018-04-24T01:31:16.451Z,15.33
2018-04-24T01:33:44.001Z,13.57
2018-04-24T01:36:11.474Z,13.03
2018-04-24T01:38:39.725Z,14.77
2018-04-24T01:41:07.222Z,13.43
2018-04-24T01:43:35.467Z,14.13
2018-04-24T01:46:02.977Z,13.73
2018-04-24T01:48:30.459Z,13.77
2018-04-24T01:50:57.966Z,11.00
2018-04-24T01:53:26.191Z,12.37
2018-04-24T01:55:53.694Z,10.93
2018-04-24T01:58:21.941Z,11.23
2018-04-24T02:00:49.438Z,10.00
2018-04-24T02:03:16.908Z,10.70
2018-04-24T02:05:44.411Z,10.37
2018-04-24T02:08:11.917Z,12.13
2018-04-24T02:10:39.415Z,11.43
2018-04-24T02:13:06.920Z,11.13
2018-04-24T02:15:35.140Z,10.43
2018-04-24T02:18:02.646Z,10.33
2018-04-24T02:20:30.109Z,10.30
2018-04-24T02:22:57.649Z,10.03
2018-04-24T02:25:25.104Z,10.63
2018-04-24T02:27:52.600Z,10.67
2018-04-24T02:30:20.101Z,10.63
2018-04-24T02:32:47.631Z,11.40
2018-04-24T02:35:15.106Z,14.13
2018-04-24T02:37:42.573Z,12.63
2018-04-24T02:40:10.101Z,11.17
2018-04-24T02:42:37.579Z,12.20
2018-04-24T02:45:05.073Z,10.70
2018-04-24T02:47:32.556Z,13.93
2018-04-24T02:50:00.822Z,13.63
2018-04-24T02:52:29.050Z,12.03
2018-04-24T02:54:56.542Z,12.60
2018-04-24T02:57:24.002Z,11.27
2018-04-24T02:59:52.295Z,11.27
2018-04-24T03:02:19.766Z,14.53
2018-04-24T03:04:47.281Z,14.10
2018-04-24T03:07:14.777Z,10.20
2018-04-24T03:09:42.270Z,9.80
2018-04-24T03:12:09.782Z,10.80
2018-04-24T03:14:38.031Z,10.37
2018-04-24T03:17:05.536Z,11.57
2018-04-24T03:19:33.017Z,11.90
2018-04-24T03:22:00.531Z,12.67
2018-04-24T03:24:28.785Z,13.20
2018-04-24T03:26:56.304Z,14.77
2018-04-24T03:29:23.776Z,13.80
2018-04-24T03:31:51.292Z,12.20
2018-04-24T03:34:18.767Z,12.77
2018-04-24T03:36:46.291Z,13.97
2018-04-24T03:39:14.515Z,11.47
2018-04-24T03:41:41.978Z,11.00
2018-04-24T03:44:09.458Z,10.63
2018-04-24T03:46:36.940Z,11.93
2018-04-24T03:49:05.224Z,11.97
2018-04-24T03:51:32.703Z,11.77
2018-04-24T03:54:00.199Z,12.57
2018-04-24T03:56:27.701Z,10.37
2018-04-24T03:58:55.964Z,14.40
2018-04-24T04:01:24.203Z,15.27
2018-04-24T04:03:51.716Z,13.20
2018-04-24T04:06:19.192Z,11.63
2018-04-24T04:08:46.718Z,11.40
2018-04-24T04:11:14.953Z,11.23
2018-04-24T04:13:42.483Z,10.80
2018-04-24T04:16:09.967Z,11.90
2018-04-24T04:18:49.452Z,13.43
2018-04-24T04:21:29.608Z,12.27
2018-04-24T04:24:09.914Z,14.87
2018-04-24T04:26:39.011Z,14.73
2018-04-24T04:29:06.497Z,13.97
2018-04-24T04:31:33.967Z,14.60
2018-04-24T04:34:02.233Z,13.47
2018-04-24T04:36:29.702Z,15.53
2018-04-24T04:38:57.948Z,14.13
2018-04-24T04:41:25.486Z,14.10
2018-04-24T04:43:52.950Z,14.67
2018-04-24T04:46:20.446Z,14.33
2018-04-24T04:48:48.721Z,14.40
2018-04-24T04:51:17.004Z,20.20
2018-04-24T04:53:45.243Z,16.80
2018-04-24T04:56:12.750Z,14.97
2018-04-24T04:58:40.233Z,17.90
2018-04-24T05:01:08.514Z,20.77
2018-04-24T05:03:35.988Z,21.60
2018-04-24T05:06:03.527Z,18.37
2018-04-24T05:08:31.008Z,17.60
2018-04-24T05:10:58.494Z,19.40
2018-04-24T05:13:26.725Z,20.70
2018-04-24T05:15:54.198Z,18.13
2018-04-24T05:18:21.729Z,17.00
2018-04-24T05:20:49.626Z,15.10
2018-04-24T05:23:17.192Z,15.17
2018-04-24T05:25:44.679Z,14.73
2018-04-24T05:28:12.965Z,14.70
2018-04-24T05:30:41.215Z,14.37
2018-04-24T05:33:08.724Z,15.10
2018-04-24T05:35:36.198Z,14.87
2018-04-24T05:38:03.739Z,15.30
2018-04-24T05:40:31.219Z,14.30
2018-04-24T05:42:58.722Z,14.67
2018-04-24T05:45:26.247Z,14.33
2018-04-24T05:47:53.766Z,13.70
2018-04-24T05:50:21.273Z,14.17
2018-04-24T05:52:48.786Z,13.60
2018-04-24T05:55:16.282Z,12.80
2018-04-24T05:57:43.863Z,12.80
2018-04-24T06:00:11.285Z,11.23
2018-04-24T06:02:38.773Z,11.80
2018-04-24T06:05:06.278Z,12.37
2018-04-24T06:07:33.752Z,12.60
2018-04-24T06:10:01.262Z,11.00
2018-04-24T06:12:29.506Z,12.20
2018-04-24T06:14:57.015Z,12.53
2018-04-24T06:17:24.502Z,15.40
2018-04-24T06:19:52.001Z,11.50
2018-04-24T06:22:19.489Z,12.10
2018-04-24T06:24:47.071Z,11.60
2018-04-24T06:27:14.498Z,13.07
2018-04-24T06:29:42.019Z,12.37
2018-04-24T06:32:09.501Z,17.40
2018-04-24T06:34:37.803Z,15.37
2018-04-24T06:37:05.270Z,16.80
2018-04-24T06:39:32.802Z,13.00
2018-04-24T06:42:01.071Z,10.17
2018-04-24T06:44:29.313Z,12.27
2018-04-24T06:46:56.938Z,17.30
2018-04-24T06:49:24.321Z,14.20
2018-04-24T06:51:51.830Z,10.23
2018-04-24T06:54:19.293Z,10.80
2018-04-24T06:56:46.792Z,15.33
2018-04-24T06:59:14.276Z,11.53
2018-04-24T07:01:41.775Z,11.10
2018-04-24T07:04:09.275Z,9.13
2018-04-24T07:06:36.782Z,10.10
2018-04-24T07:09:04.276Z,17.00
2018-04-24T07:11:31.789Z,12.20
2018-04-24T07:13:59.282Z,11.43
2018-04-24T07:16:26.774Z,12.53
2018-04-24T07:18:54.248Z,13.83
2018-04-24T07:21:22.510Z,8.67
2018-04-24T07:23:49.992Z,11.53
2018-04-24T07:26:18.226Z,6.63
2018-04-24T07:28:45.732Z,7.73
2018-04-24T07:31:13.991Z,5.80
2018-04-24T07:33:41.486Z,9.30
2018-04-24T07:36:08.979Z,8.00
2018-04-24T07:38:36.487Z,6.20
2018-04-24T07:41:04.064Z,8.57
2018-04-24T07:43:31.471Z,8.93
2018-04-24T07:45:58.926Z,8.87
2018-04-24T07:48:26.437Z,11.13
2018-04-24T07:50:53.909Z,10.30
2018-04-24T07:53:21.438Z,17.43
2018-04-24T07:55:48.905Z,16.47
2018-04-24T07:58:16.431Z,11.43
2018-04-24T08:00:44.718Z,15.80
2018-04-24T08:03:12.982Z,11.43
2018-04-24T08:05:41.251Z,9.43
2018-04-24T08:08:08.823Z,7.23
2018-04-24T08:10:36.301Z,5.87
2018-04-24T08:13:03.777Z,7.07
2018-04-24T08:15:31.285Z,9.37
2018-04-24T08:17:58.774Z,9.30
2018-04-24T08:20:26.271Z,12.23
2018-04-24T08:22:54.006Z,9.40
2018-04-24T08:25:21.511Z,10.50
2018-04-24T08:27:48.979Z,15.33
2018-04-24T08:30:16.496Z,6.70
2018-04-24T08:32:43.964Z,7.40
2018-04-24T08:35:11.472Z,6.53
2018-04-24T08:37:39.721Z,5.20
2018-04-24T08:40:07.233Z,5.77
2018-04-24T08:42:34.696Z,6.00
2018-04-24T08:45:02.219Z,4.70
2018-04-24T08:47:30.468Z,5.90
2018-04-24T08:49:57.950Z,6.40
2018-04-24T08:52:26.235Z,5.00
2018-04-24T08:54:53.728Z,6.13
2018-04-24T08:57:21.226Z,6.10
2018-04-24T08:59:48.711Z,4.50
2018-04-24T09:02:16.197Z,6.13
2018-04-24T09:04:44.191Z,6.57
2018-04-24T09:07:11.708Z,6.47
2018-04-24T09:09:39.174Z,6.17
2018-04-24T09:12:06.673Z,4.67
2018-04-24T09:14:34.133Z,7.20
2018-04-24T09:17:01.637Z,5.83
2018-04-24T09:19:29.115Z,8.70
2018-04-24T09:21:56.627Z,6.07
2018-04-24T09:24:24.871Z,5.47
2018-04-24T09:26:52.411Z,6.23
2018-04-24T09:29:19.907Z,7.27
2018-04-24T09:31:47.408Z,5.87
2018-04-24T09:34:14.888Z,5.53
2018-04-24T09:36:42.424Z,4.67
2018-04-24T09:39:09.961Z,6.60
2018-04-24T09:41:38.216Z,6.50
2018-04-24T09:44:05.733Z,6.07
2018-04-24T09:46:33.231Z,8.02
2018-04-24T09:49:00.783Z,4.82
2018-04-24T09:51:28.235Z,5.82
2018-04-24T09:53:55.757Z,6.00
2018-04-24T09:56:23.237Z,8.73
2018-04-24T09:58:50.740Z,6.10
2018-04-24T10:01:19.022Z,8.32
2018-04-24T10:03:47.286Z,5.72
2018-04-24T10:06:15.589Z,5.70
2018-04-24T10:08:43.099Z,5.95
2018-04-24T10:11:10.593Z,5.50
2018-04-24T10:13:38.898Z,8.38
2018-04-24T10:16:06.362Z,6.65
2018-04-24T10:18:33.984Z,7.78
2018-04-24T10:21:01.446Z,6.03
2018-04-24T10:23:28.943Z,5.22
2018-04-24T10:25:56.409Z,5.12
2018-04-24T10:28:24.098Z,4.37
2018-04-24T10:30:51.573Z,5.43
2018-04-24T10:33:19.806Z,4.80
2018-04-24T10:35:47.319Z,7.62
2018-04-24T10:38:14.797Z,4.43
2018-04-24T10:40:42.303Z,6.57
2018-04-24T10:43:10.092Z,5.95
2018-04-24T10:45:37.628Z,3.78
2018-04-24T10:48:05.150Z,4.70
2018-04-24T10:50:33.629Z,4.68
2018-04-24T10:53:01.108Z,4.72
2018-04-24T10:55:28.615Z,4.72
2018-04-24T10:57:56.092Z,5.82
2018-04-24T11:00:23.610Z,4.82
2018-04-24T11:02:51.856Z,5.55
2018-04-24T11:05:19.358Z,5.22
2018-04-24T11:07:47.590Z,4.18
2018-04-24T11:10:15.107Z,5.97
2018-04-24T11:12:43.378Z,5.70
2018-04-24T11:15:10.882Z,5.07
2018-04-24T11:17:38.368Z,4.85
2018-04-24T11:20:06.090Z,4.10
2018-04-24T11:22:33.599Z,6.40
2018-04-24T11:25:01.835Z,5.72
2018-04-24T11:27:29.344Z,4.57
2018-04-24T11:29:56.843Z,4.68
2018-04-24T11:32:24.387Z,4.87
2018-04-24T11:34:52.601Z,8.18
2018-04-24T11:37:20.105Z,6.20
2018-04-24T11:39:47.596Z,5.97
2018-04-24T11:42:15.086Z,4.05
2018-04-24T11:44:43.331Z,3.85
2018-04-24T11:47:10.848Z,4.97
2018-04-24T11:49:38.491Z,4.22
2018-04-24T11:52:05.849Z,3.87
2018-04-24T11:54:34.096Z,4.47
2018-04-24T11:57:01.682Z,4.75
2018-04-24T11:59:29.120Z,4.18
2018-04-24T12:01:56.667Z,5.37
2018-04-24T12:04:24.145Z,3.50
2018-04-24T12:06:52.421Z,4.90
2018-04-24T12:09:20.706Z,4.62
2018-04-24T12:11:48.942Z,4.22
2018-04-24T12:14:16.433Z,4.43
2018-04-24T12:16:44.688Z,4.00
2018-04-24T12:19:12.268Z,4.15
2018-04-24T12:21:39.745Z,5.45
2018-04-24T12:24:07.256Z,8.18
2018-04-24T12:26:34.756Z,4.20
2018-04-24T12:29:02.267Z,6.05
2018-04-24T12:31:29.746Z,5.62
2018-04-24T12:33:57.256Z,4.40
2018-04-24T12:36:24.752Z,2.87
2018-04-24T12:38:52.317Z,4.68
2018-04-24T12:41:19.760Z,4.55
2018-04-24T12:43:47.288Z,3.37
2018-04-24T12:46:15.520Z,3.53
2018-04-24T12:48:43.791Z,3.42
2018-04-24T12:51:11.305Z,2.83
2018-04-24T12:53:38.788Z,3.80
2018-04-24T12:56:06.296Z,3.70
2018-04-24T12:58:33.769Z,4.15
2018-04-24T13:01:01.292Z,4.68
2018-04-24T13:03:28.783Z,3.75
2018-04-24T13:05:56.354Z,3.37
2018-04-24T13:08:23.868Z,3.37
2018-04-24T13:10:52.465Z,3.10
2018-04-24T13:13:19.946Z,3.12
2018-04-24T13:15:47.455Z,2.65
2018-04-24T13:18:14.961Z,4.22
2018-04-24T13:20:42.460Z,3.75
2018-04-24T13:23:09.961Z,6.00
2018-04-24T13:25:37.550Z,2.22
2018-04-24T13:28:04.959Z,5.12
2018-04-24T13:30:32.637Z,2.85
2018-04-24T13:33:00.319Z,6.00
2018-04-24T13:35:27.798Z,3.90
2018-04-24T13:37:55.315Z,3.85
2018-04-24T13:40:23.621Z,3.50
2018-04-24T13:42:51.156Z,2.62
2018-04-24T13:45:18.645Z,6.07
2018-04-24T13:47:46.176Z,5.53
2018-04-24T13:50:13.660Z,4.05
2018-04-24T13:52:43.173Z,3.80
2018-04-24T13:55:10.645Z,4.25
2018-04-24T13:57:38.163Z,4.65
2018-04-24T14:00:05.634Z,5.45
2018-04-24T14:02:33.153Z,5.87
2018-04-24T14:05:01.400Z,3.37
2018-04-24T14:07:28.925Z,2.58
2018-04-24T14:09:56.429Z,2.70
2018-04-24T14:12:23.908Z,4.47
2018-04-24T14:14:51.435Z,5.75
2018-04-24T14:17:18.956Z,2.90
2018-04-24T14:19:46.454Z,2.72
2018-04-24T14:22:13.929Z,4.37
2018-04-24T14:24:42.211Z,3.00
2018-04-24T14:27:10.452Z,3.27
2018-04-24T14:29:38.738Z,2.83
2018-04-24T14:32:06.203Z,2.10
2018-04-24T14:34:35.763Z,3.40
2018-04-24T14:37:03.285Z,2.87
2018-04-24T14:39:30.792Z,3.77
2018-04-24T14:41:58.295Z,3.13
2018-04-24T14:44:26.592Z,5.13
2018-04-24T14:46:54.170Z,3.77
2018-04-24T14:49:22.340Z,2.30
2018-04-24T14:51:49.851Z,2.10
2018-04-24T14:54:17.331Z,5.63
2018-04-24T14:56:45.599Z,2.13
2018-04-24T14:59:14.888Z,2.80
2018-04-24T15:01:43.178Z,2.17
2018-04-24T15:04:11.421Z,3.23
2018-04-24T15:06:43.553Z,2.90
2018-04-24T15:09:11.043Z,3.63
2018-04-24T15:11:38.539Z,6.13
2018-04-24T15:14:06.769Z,2.50
2018-04-24T15:16:34.276Z,4.60
2018-04-24T15:19:02.513Z,2.87
2018-04-24T15:21:30.015Z,2.73
2018-04-24T15:23:57.491Z,2.50
2018-04-24T15:26:25.000Z,5.43
2018-04-24T15:28:52.537Z,4.07
2018-04-24T15:31:20.021Z,5.40
2018-04-24T15:33:48.292Z,3.70
2018-04-24T15:36:15.782Z,2.70
2018-04-24T15:38:48.177Z,2.60
2018-04-24T15:41:15.962Z,2.87
2018-04-24T15:43:43.464Z,4.33
2018-04-24T15:46:11.710Z,4.60
2018-04-24T15:48:39.201Z,5.83
2018-04-24T15:51:07.460Z,5.00
2018-04-24T15:53:34.949Z,2.67
2018-04-24T15:56:02.424Z,2.27
2018-04-24T15:58:29.964Z,4.17
2018-04-24T16:00:57.439Z,3.43
2018-04-24T16:03:24.929Z,4.63
2018-04-24T16:05:52.491Z,2.67
2018-04-24T16:08:20.008Z,2.73
2018-04-24T16:10:47.512Z,3.43
2018-04-24T16:13:15.032Z,3.23
2018-04-24T16:15:42.523Z,4.27
2018-04-24T16:18:10.040Z,4.47
2018-04-24T16:20:37.524Z,5.00
2018-04-24T16:23:05.048Z,5.57
2018-04-24T16:25:32.581Z,4.00
2018-04-24T16:28:00.819Z,4.80
2018-04-24T16:30:28.334Z,4.30
2018-04-24T16:32:55.793Z,4.17
2018-04-24T16:35:23.337Z,3.57
2018-04-24T16:37:51.571Z,2.67
2018-04-24T16:40:19.079Z,3.73
2018-04-24T16:42:46.560Z,4.00
2018-04-24T16:45:14.422Z,4.63
2018-04-24T16:47:41.962Z,3.17
2018-04-24T16:50:10.251Z,3.90
2018-04-24T16:52:37.952Z,2.60
2018-04-24T16:55:05.523Z,4.53
2018-04-24T16:57:32.999Z,3.30
2018-04-24T17:00:00.489Z,3.10
2018-04-24T17:02:27.958Z,3.97
2018-04-24T17:04:55.466Z,3.00
2018-04-24T17:07:22.941Z,4.70
2018-04-24T17:09:51.227Z,3.30
2018-04-24T17:12:19.449Z,3.67
2018-04-24T17:14:46.938Z,3.77
2018-04-24T17:17:15.209Z,5.10
2018-04-24T17:19:42.696Z,4.80
2018-04-24T17:22:10.197Z,4.50
2018-04-24T17:24:37.722Z,4.90
2018-04-24T17:27:05.297Z,9.30
2018-04-24T17:29:32.852Z,6.77
2018-04-24T17:32:00.372Z,6.07
2018-04-24T17:34:28.597Z,4.17
2018-04-24T17:36:56.108Z,3.37
2018-04-24T17:39:24.343Z,2.70
2018-04-24T17:41:51.920Z,4.47
2018-04-24T17:44:19.408Z,4.03
2018-04-24T17:46:47.695Z,4.13
2018-04-24T17:49:15.169Z,3.97
2018-04-24T17:51:42.707Z,4.00
2018-04-24T17:54:10.182Z,4.93
2018-04-24T17:56:37.664Z,4.20
2018-04-24T17:59:05.230Z,5.90
2018-04-24T18:01:32.710Z,3.40
2018-04-24T18:04:00.232Z,5.13
2018-04-24T18:06:27.727Z,4.03
2018-04-24T18:08:55.263Z,3.77
2018-04-24T18:11:22.785Z,5.07
2018-04-24T18:13:51.031Z,3.50
2018-04-24T18:16:19.268Z,3.30
2018-04-24T18:18:46.786Z,4.13
2018-04-24T18:21:15.023Z,5.17
2018-04-24T18:23:42.538Z,3.53
2018-04-24T18:26:10.026Z,3.77
2018-04-24T18:28:37.549Z,5.13
2018-04-24T18:31:05.038Z,3.90
2018-04-24T18:33:32.564Z,5.33
2018-04-24T18:36:00.057Z,4.97
2018-04-24T18:38:27.581Z,5.33
2018-04-24T18:40:55.047Z,4.23
2018-04-24T18:43:22.616Z,6.57
2018-04-24T18:45:50.100Z,4.23
2018-04-24T18:48:17.757Z,4.83
2018-04-24T18:50:45.260Z,5.50
2018-04-24T18:53:13.571Z,4.47
2018-04-24T18:55:40.994Z,6.23
2018-04-24T18:58:08.471Z,4.33
2018-04-24T19:00:35.977Z,5.53
2018-04-24T19:03:03.494Z,6.30
2018-04-24T19:05:31.020Z,6.27
2018-04-24T19:07:59.919Z,4.57
2018-04-24T19:10:27.424Z,6.13
2018-04-24T19:12:54.918Z,4.07
2018-04-24T19:15:22.433Z,6.10
2018-04-24T19:17:49.916Z,6.27
2018-04-24T19:20:17.420Z,5.90
2018-04-24T19:22:44.892Z,5.03
2018-04-24T19:25:18.127Z,4.80
2018-04-24T19:27:45.616Z,4.73
2018-04-24T19:30:13.122Z,4.73
2018-04-24T19:32:40.611Z,4.30
2018-04-24T19:35:08.898Z,7.00
2018-04-24T19:37:37.133Z,6.00
2018-04-24T19:40:10.352Z,4.53
2018-04-24T19:42:38.583Z,3.87
2018-04-24T19:45:06.084Z,3.73
2018-04-24T19:47:33.597Z,5.70
2018-04-24T19:50:06.739Z,4.97
2018-04-24T19:52:35.007Z,4.63
2018-04-24T19:55:08.215Z,7.63
2018-04-24T19:57:35.718Z,8.07
2018-04-24T20:00:03.251Z,6.23
2018-04-24T20:02:30.768Z,6.37
2018-04-24T20:04:58.249Z,5.03
2018-04-24T20:07:26.524Z,4.73
2018-04-24T20:09:54.772Z,6.20
2018-04-24T20:12:22.285Z,4.47
2018-04-24T20:14:49.758Z,5.93
2018-04-24T20:17:17.269Z,5.73
2018-04-24T20:19:45.558Z,4.73
2018-04-24T20:22:13.027Z,7.63
2018-04-24T20:24:41.163Z,5.43
2018-04-24T20:27:09.453Z,4.83
2018-04-24T20:29:37.694Z,4.83
2018-04-24T20:32:05.189Z,5.93
2018-04-24T20:34:33.440Z,5.57
2018-04-24T20:37:00.958Z,7.77
2018-04-24T20:39:28.425Z,5.73
2018-04-24T20:41:55.911Z,6.40
2018-04-24T20:44:23.421Z,6.47
2018-04-24T20:46:50.886Z,5.40
2018-04-24T20:49:18.421Z,8.10
2018-04-24T20:51:45.909Z,5.07
2018-04-24T20:54:13.419Z,5.23
2018-04-24T20:56:41.680Z,4.70
2018-04-24T20:59:09.968Z,5.00
2018-04-24T21:01:37.438Z,4.10
2018-04-24T21:04:05.712Z,4.87
2018-04-24T21:06:33.952Z,5.37
2018-04-24T21:09:01.478Z,4.60
2018-04-24T21:11:28.957Z,5.17
2018-04-24T21:13:57.264Z,4.57
2018-04-24T21:16:25.499Z,6.77
2018-04-24T21:18:53.032Z,5.10
2018-04-24T21:21:20.511Z,5.30
2018-04-24T21:23:47.999Z,7.17
2018-04-24T21:26:15.551Z,5.83
2018-04-24T21:28:43.028Z,5.80
2018-04-24T21:31:11.327Z,5.00
2018-04-24T21:33:38.811Z,5.10
2018-04-24T21:36:06.310Z,6.27
2018-04-24T21:38:33.807Z,5.20
2018-04-24T21:41:02.079Z,7.47
2018-04-24T21:43:30.310Z,5.27
2018-04-24T21:45:57.811Z,5.50
2018-04-24T21:48:25.269Z,5.33
2018-04-24T21:50:52.869Z,5.20
2018-04-24T21:53:20.343Z,4.67
2018-04-24T21:55:47.838Z,5.17
2018-04-24T21:58:16.081Z,5.07
2018-04-24T22:00:43.566Z,5.17
2018-04-24T22:03:11.820Z,4.97
2018-04-24T22:05:39.316Z,5.13
2018-04-24T22:08:07.551Z,5.53
2018-04-24T22:10:35.077Z,5.33
2018-04-24T22:13:02.545Z,5.80
2018-04-24T22:15:30.017Z,6.03
2018-04-24T22:17:57.510Z,5.57
2018-04-24T22:20:25.743Z,5.90
2018-04-24T22:22:53.252Z,5.07
2018-04-24T22:25:20.734Z,5.53
2018-04-24T22:27:48.242Z,6.10
2018-04-24T22:30:18.581Z,5.97
2018-04-24T22:32:46.871Z,5.30
2018-04-24T22:35:14.343Z,5.67
2018-04-24T22:37:41.858Z,5.03
2018-04-24T22:40:09.323Z,5.67
2018-04-24T22:42:37.585Z,5.57
2018-04-24T22:45:05.075Z,4.97
2018-04-24T22:47:32.585Z,5.20
2018-04-24T22:50:00.038Z,6.93
2018-04-24T22:52:27.514Z,7.23
2018-04-24T22:54:54.997Z,5.93
2018-04-24T22:57:23.242Z,6.30
2018-04-24T22:59:50.750Z,6.80
2018-04-24T23:02:18.253Z,8.80
2018-04-24T23:04:45.744Z,9.37
2018-04-24T23:07:13.983Z,10.07
2018-04-24T23:09:54.400Z,7.97
2018-04-24T23:12:33.958Z,6.20
2018-04-24T23:15:13.330Z,7.00
2018-04-24T23:17:52.744Z,8.03
2018-04-24T23:20:20.295Z,7.97
2018-04-24T23:22:47.773Z,7.87
2018-04-24T23:25:15.264Z,8.37
2018-04-24T23:27:43.527Z,8.80
2018-04-24T23:30:10.980Z,8.03
2018-04-24T23:32:38.468Z,9.37
2018-04-24T23:35:06.694Z,7.33
2018-04-24T23:37:34.169Z,6.73
2018-04-24T23:40:01.635Z,9.40
2018-04-24T23:42:29.932Z,7.40
2018-04-24T23:44:58.163Z,7.43
2018-04-24T23:47:25.649Z,6.93
2018-04-24T23:49:53.106Z,6.97
2018-04-24T23:52:20.587Z,7.67
2018-04-24T23:54:48.069Z,6.90
2018-04-24T23:57:15.555Z,7.63
2018-04-24T23:59:43.027Z,7.30
